createdAt,value
2022-11-17T00:02:11.312Z,1.27
2022-11-17T00:04:37.582Z,1.17
2022-11-17T00:07:03.867Z,1.16
2022-11-17T00:09:30.141Z,1.05
2022-11-17T00:11:56.390Z,0.99
2022-11-17T00:14:22.628Z,1.17
2022-11-17T00:16:48.859Z,1.27
2022-11-17T00:19:15.096Z,1.19
2022-11-17T00:21:41.323Z,1.18
2022-11-17T00:24:07.568Z,1.29
2022-11-17T00:26:33.897Z,1.27
2022-11-17T00:29:00.130Z,1.44
2022-11-17T00:31:26.372Z,1.36
2022-11-17T00:33:52.605Z,1.41
2022-11-17T00:36:18.839Z,1.43
2022-11-17T00:38:45.093Z,1.45
2022-11-17T00:41:11.335Z,1.35
2022-11-17T00:43:37.929Z,1.41
2022-11-17T00:46:04.231Z,1.53
2022-11-17T00:48:30.458Z,1.35
2022-11-17T00:50:56.693Z,1.39
2022-11-17T00:53:22.936Z,1.39
2022-11-17T00:55:49.210Z,1.34
2022-11-17T00:58:15.491Z,1.35
2022-11-17T01:00:41.735Z,1.24
2022-11-17T01:03:07.989Z,1.38
2022-11-17T01:05:34.231Z,1.21
2022-11-17T01:08:00.470Z,1.16
2022-11-17T01:10:26.717Z,1.39
2022-11-17T01:12:52.969Z,1.46
2022-11-17T01:15:19.212Z,1.62
2022-11-17T01:17:45.443Z,1.51
2022-11-17T01:20:11.677Z,1.68
2022-11-17T01:22:37.914Z,1.50
2022-11-17T01:25:04.161Z,1.57
2022-11-17T01:27:30.406Z,1.42
2022-11-17T01:29:56.652Z,1.40
2022-11-17T01:32:22.901Z,1.29
2022-11-17T01:34:49.138Z,1.25
2022-11-17T01:37:15.372Z,1.26
2022-11-17T01:39:41.602Z,0.98
2022-11-17T01:42:07.831Z,1.02
2022-11-17T01:44:34.069Z,1.12
2022-11-17T01:47:01.189Z,1.04
2022-11-17T01:49:27.607Z,1.09
2022-11-17T01:51:53.861Z,1.18
2022-11-17T01:54:20.097Z,1.20
2022-11-17T01:56:46.332Z,1.05
2022-11-17T01:59:12.573Z,0.97
2022-11-17T02:01:38.872Z,1.04
2022-11-17T02:04:05.126Z,1.10
2022-11-17T02:06:31.356Z,1.02
2022-11-17T02:08:57.602Z,1.07
2022-11-17T02:11:23.848Z,0.98
2022-11-17T02:13:50.107Z,1.06
2022-11-17T02:16:16.442Z,0.86
2022-11-17T02:18:42.680Z,0.82
2022-11-17T02:21:08.932Z,0.81
2022-11-17T02:23:35.375Z,0.73
2022-11-17T02:26:01.761Z,0.58
2022-11-17T02:28:28.012Z,0.69
2022-11-17T02:30:54.257Z,0.65
2022-11-17T02:33:20.497Z,0.62
2022-11-17T02:35:46.736Z,0.61
2022-11-17T02:38:12.976Z,0.62
2022-11-17T02:40:39.209Z,0.68
2022-11-17T02:43:05.451Z,0.70
2022-11-17T02:45:31.675Z,0.77
2022-11-17T02:47:57.899Z,0.61
2022-11-17T02:50:28.281Z,0.68
2022-11-17T02:52:54.919Z,0.80
2022-11-17T02:55:21.158Z,0.65
2022-11-17T02:57:47.393Z,0.76
2022-11-17T03:00:13.618Z,0.75
2022-11-17T03:02:39.852Z,0.82
2022-11-17T03:05:06.092Z,0.77
2022-11-17T03:07:32.436Z,0.78
2022-11-17T03:09:58.730Z,0.76
2022-11-17T03:12:24.966Z,0.76
2022-11-17T03:14:51.199Z,0.79
2022-11-17T03:17:17.423Z,0.79
2022-11-17T03:19:43.668Z,0.80
2022-11-17T03:22:09.898Z,0.81
2022-11-17T03:24:36.130Z,0.81
2022-11-17T03:27:02.371Z,0.88
2022-11-17T03:29:28.616Z,1.11
2022-11-17T03:31:54.847Z,0.88
2022-11-17T03:34:21.076Z,0.97
2022-11-17T03:36:47.323Z,0.79
2022-11-17T03:39:13.552Z,0.93
2022-11-17T03:41:39.796Z,0.86
2022-11-17T03:44:06.038Z,0.91
2022-11-17T03:46:32.273Z,0.97
2022-11-17T03:48:58.607Z,1.01
2022-11-17T03:51:24.841Z,0.84
2022-11-17T03:53:51.074Z,0.87
2022-11-17T03:56:17.316Z,1.05
2022-11-17T03:58:43.547Z,0.96
2022-11-17T04:01:09.777Z,0.87
2022-11-17T04:03:36.416Z,0.86
2022-11-17T04:06:02.881Z,0.89
2022-11-17T04:08:29.113Z,0.90
2022-11-17T04:10:55.367Z,0.87
2022-11-17T04:13:21.628Z,0.95
2022-11-17T04:15:47.852Z,0.81
2022-11-17T04:18:14.086Z,0.90
2022-11-17T04:20:40.332Z,0.77
2022-11-17T04:23:06.580Z,0.78
2022-11-17T04:25:32.823Z,0.69
2022-11-17T04:27:59.202Z,0.79
2022-11-17T04:30:25.433Z,0.79
2022-11-17T04:32:51.669Z,0.81
2022-11-17T04:35:17.902Z,0.94
2022-11-17T04:37:44.142Z,0.76
2022-11-17T04:40:10.374Z,0.84
2022-11-17T04:42:36.597Z,1.02
2022-11-17T04:45:02.833Z,0.97
2022-11-17T04:47:29.069Z,0.85
2022-11-17T04:49:55.299Z,0.85
2022-11-17T04:52:25.424Z,0.72
2022-11-17T04:54:54.644Z,0.78
2022-11-17T04:57:20.875Z,0.81
2022-11-17T04:59:47.121Z,0.79
2022-11-17T05:02:13.378Z,0.80
2022-11-17T05:04:39.629Z,0.87
2022-11-17T05:07:05.911Z,0.88
2022-11-17T05:09:32.170Z,0.85
2022-11-17T05:11:58.410Z,0.75
2022-11-17T05:14:24.653Z,0.77
2022-11-17T05:16:50.903Z,0.78
2022-11-17T05:19:17.131Z,0.69
2022-11-17T05:21:43.363Z,0.78
2022-11-17T05:24:09.594Z,0.76
2022-11-17T05:26:35.826Z,0.77
2022-11-17T05:29:02.060Z,0.84
2022-11-17T05:31:28.305Z,0.67
2022-11-17T05:33:54.538Z,0.63
2022-11-17T05:36:20.776Z,0.73
2022-11-17T05:38:47.032Z,0.75
2022-11-17T05:41:13.272Z,0.70
2022-11-17T05:43:39.508Z,0.67
2022-11-17T05:46:05.750Z,0.64
2022-11-17T05:48:31.984Z,0.88
2022-11-17T05:50:58.215Z,0.69
2022-11-17T05:53:24.453Z,0.67
2022-11-17T05:55:50.686Z,0.75
2022-11-17T05:58:16.949Z,0.70
2022-11-17T06:00:43.191Z,0.82
2022-11-17T06:03:09.439Z,0.80
2022-11-17T06:05:35.687Z,0.87
2022-11-17T06:08:01.920Z,0.80
2022-11-17T06:10:28.197Z,0.95
2022-11-17T06:12:54.427Z,0.86
2022-11-17T06:15:20.692Z,1.14
2022-11-17T06:17:46.978Z,0.84
2022-11-17T06:20:13.226Z,0.82
2022-11-17T06:22:41.866Z,0.76
2022-11-17T06:25:11.702Z,1.15
2022-11-17T06:27:37.974Z,1.15
2022-11-17T06:30:04.362Z,1.02
2022-11-17T06:32:30.607Z,0.98
2022-11-17T06:34:56.851Z,1.21
2022-11-17T06:37:23.607Z,1.05
2022-11-17T06:39:49.852Z,1.05
2022-11-17T06:42:16.091Z,1.10
2022-11-17T06:44:42.935Z,1.02
2022-11-17T06:47:09.162Z,0.88
2022-11-17T06:49:35.389Z,1.00
2022-11-17T06:52:01.632Z,1.25
2022-11-17T06:54:27.907Z,1.20
2022-11-17T06:56:54.233Z,0.98
2022-11-17T06:59:20.580Z,0.90
2022-11-17T07:01:46.915Z,0.91
2022-11-17T07:04:13.251Z,0.97
2022-11-17T07:06:39.595Z,0.88
2022-11-17T07:09:05.937Z,1.04
2022-11-17T07:11:32.274Z,1.01
2022-11-17T07:13:58.700Z,0.86
2022-11-17T07:16:24.984Z,1.03
2022-11-17T07:18:51.265Z,1.06
2022-11-17T07:21:17.551Z,0.93
2022-11-17T07:23:43.827Z,1.14
2022-11-17T07:26:10.101Z,1.02
2022-11-17T07:28:36.702Z,1.04
2022-11-17T07:31:03.361Z,0.90
2022-11-17T07:33:29.649Z,1.10
2022-11-17T07:35:55.973Z,1.10
2022-11-17T07:38:22.254Z,1.14
2022-11-17T07:40:48.583Z,1.10
2022-11-17T07:43:14.860Z,1.07
2022-11-17T07:45:41.145Z,1.26
2022-11-17T07:48:07.469Z,1.13
2022-11-17T07:50:33.806Z,1.06
2022-11-17T07:53:00.084Z,1.04
2022-11-17T07:55:26.393Z,1.02
2022-11-17T07:57:52.672Z,1.11
2022-11-17T08:00:18.946Z,1.07
2022-11-17T08:02:45.230Z,1.18
2022-11-17T08:05:11.555Z,1.01
2022-11-17T08:07:37.892Z,1.13
2022-11-17T08:10:04.190Z,1.24
2022-11-17T08:12:30.515Z,1.02
2022-11-17T08:14:56.849Z,1.04
2022-11-17T08:17:23.188Z,1.11
2022-11-17T08:19:49.521Z,1.04
2022-11-17T08:22:15.806Z,1.15
2022-11-17T08:24:42.340Z,1.05
2022-11-17T08:27:08.715Z,1.05
2022-11-17T08:29:35.005Z,1.01
2022-11-17T08:32:01.273Z,1.06
2022-11-17T08:34:27.553Z,1.16
2022-11-17T08:36:53.874Z,0.99
2022-11-17T08:39:20.203Z,1.30
2022-11-17T08:41:46.481Z,1.24
2022-11-17T08:44:12.750Z,1.18
2022-11-17T08:46:39.074Z,1.08
2022-11-17T08:49:05.349Z,1.09
2022-11-17T08:51:31.675Z,1.12
2022-11-17T08:53:57.958Z,1.06
2022-11-17T08:56:24.238Z,1.13
2022-11-17T08:58:50.528Z,1.19
2022-11-17T09:01:16.835Z,1.06
2022-11-17T09:03:43.104Z,1.06
2022-11-17T09:06:09.342Z,0.86
2022-11-17T09:08:45.606Z,0.88
2022-11-17T09:11:12.806Z,1.16
2022-11-17T09:13:39.073Z,1.13
2022-11-17T09:16:05.335Z,1.27
2022-11-17T09:18:31.605Z,0.96
2022-11-17T09:20:57.867Z,0.92
2022-11-17T09:23:24.132Z,0.95
2022-11-17T09:25:50.396Z,0.85
2022-11-17T09:28:16.652Z,0.72
2022-11-17T09:30:42.918Z,0.85
2022-11-17T09:33:09.188Z,0.91
2022-11-17T09:35:35.445Z,1.10
2022-11-17T09:38:01.734Z,1.20
2022-11-17T09:40:31.873Z,1.13
2022-11-17T09:43:00.987Z,1.36
2022-11-17T09:45:27.251Z,1.18
2022-11-17T09:48:02.406Z,1.23
2022-11-17T09:50:38.852Z,1.32
2022-11-17T09:53:05.104Z,1.62
2022-11-17T09:55:34.469Z,1.50
2022-11-17T09:58:00.914Z,1.34
2022-11-17T10:00:27.164Z,1.12
2022-11-17T10:02:53.408Z,1.22
2022-11-17T10:05:19.652Z,1.20
2022-11-17T10:07:45.892Z,1.13
2022-11-17T10:10:12.153Z,1.31
2022-11-17T10:12:38.424Z,1.10
2022-11-17T10:15:04.682Z,1.23
2022-11-17T10:17:30.933Z,1.08
2022-11-17T10:19:57.205Z,1.19
2022-11-17T10:22:23.452Z,1.39
2022-11-17T10:24:49.814Z,1.34
2022-11-17T10:27:16.087Z,1.45
2022-11-17T10:29:42.326Z,1.28
2022-11-17T10:32:08.593Z,1.36
2022-11-17T10:34:40.539Z,1.24
2022-11-17T10:37:07.619Z,1.39
2022-11-17T10:39:33.861Z,1.29
2022-11-17T10:42:00.101Z,1.22
2022-11-17T10:44:26.367Z,1.29
2022-11-17T10:46:54.505Z,1.38
2022-11-17T10:49:23.886Z,1.23
2022-11-17T10:51:50.159Z,1.27
2022-11-17T10:54:16.443Z,1.27
2022-11-17T10:56:42.712Z,1.33
2022-11-17T10:59:08.964Z,1.70
2022-11-17T11:01:35.417Z,1.27
2022-11-17T11:04:01.760Z,1.20
2022-11-17T11:06:28.019Z,1.17
2022-11-17T11:08:54.495Z,1.37
2022-11-17T11:11:20.795Z,1.20
2022-11-17T11:13:47.032Z,1.53
2022-11-17T11:16:13.272Z,1.30
2022-11-17T11:18:39.538Z,1.22
2022-11-17T11:21:05.779Z,1.34
2022-11-17T11:23:32.042Z,1.09
2022-11-17T11:25:58.280Z,1.16
2022-11-17T11:28:24.543Z,1.19
2022-11-17T11:30:50.813Z,1.38
2022-11-17T11:33:17.074Z,1.38
2022-11-17T11:35:43.339Z,1.41
2022-11-17T11:38:09.681Z,1.45
2022-11-17T11:40:35.939Z,1.58
2022-11-17T11:43:02.184Z,1.50
2022-11-17T11:45:28.427Z,2.14
2022-11-17T11:47:54.674Z,2.64
2022-11-17T11:50:20.927Z,1.59
2022-11-17T11:52:47.195Z,1.13
2022-11-17T11:55:13.455Z,1.14
2022-11-17T11:57:39.728Z,1.03
2022-11-17T12:00:05.995Z,1.19
2022-11-17T12:02:32.272Z,1.15
2022-11-17T12:04:58.564Z,1.08
2022-11-17T12:07:24.913Z,1.38
2022-11-17T12:09:51.219Z,1.26
2022-11-17T12:12:17.475Z,1.07
2022-11-17T12:14:43.744Z,1.22
2022-11-17T12:17:10.021Z,1.29
2022-11-17T12:19:36.284Z,0.98
2022-11-17T12:22:02.524Z,0.85
2022-11-17T12:24:28.783Z,1.07
2022-11-17T12:26:55.031Z,1.33
2022-11-17T12:29:21.308Z,1.22
2022-11-17T12:31:47.565Z,1.33
2022-11-17T12:34:14.190Z,1.11
2022-11-17T12:36:40.639Z,1.26
2022-11-17T12:39:06.894Z,1.23
2022-11-17T12:41:33.163Z,1.13
2022-11-17T12:43:59.404Z,1.24
2022-11-17T12:46:25.648Z,1.08
2022-11-17T12:48:51.962Z,1.11
2022-11-17T12:51:18.330Z,1.32
2022-11-17T12:53:44.590Z,1.69
2022-11-17T12:56:10.851Z,1.62
2022-11-17T12:58:37.122Z,1.75
2022-11-17T13:01:03.444Z,1.51
2022-11-17T13:03:29.749Z,1.83
2022-11-17T13:06:19.754Z,1.59
2022-11-17T13:08:42.236Z,1.80
2022-11-17T13:11:08.471Z,1.65
2022-11-17T13:13:38.775Z,1.91
2022-11-17T13:16:06.508Z,1.86
2022-11-17T13:18:32.753Z,1.83
2022-11-17T13:20:59.036Z,1.53
2022-11-17T13:23:25.307Z,1.51
2022-11-17T13:25:51.557Z,1.51
2022-11-17T13:28:17.811Z,1.43
2022-11-17T13:30:44.105Z,1.47
2022-11-17T13:33:10.367Z,1.37
2022-11-17T13:35:36.634Z,1.43
2022-11-17T13:38:02.884Z,1.71
2022-11-17T13:40:29.152Z,1.44
2022-11-17T13:42:55.413Z,1.75
2022-11-17T13:45:21.652Z,1.46
2022-11-17T13:47:47.900Z,1.56
2022-11-17T13:50:14.164Z,1.91
2022-11-17T13:52:46.521Z,1.55
2022-11-17T13:55:13.256Z,1.60
2022-11-17T13:57:39.508Z,1.67
2022-11-17T14:00:05.768Z,1.68
2022-11-17T14:02:32.031Z,1.91
2022-11-17T14:04:58.325Z,1.83
2022-11-17T14:07:24.605Z,1.56
2022-11-17T14:09:50.893Z,1.45
2022-11-17T14:12:17.169Z,1.81
2022-11-17T14:14:43.439Z,1.98
2022-11-17T14:17:09.712Z,1.97
2022-11-17T14:19:35.960Z,1.79
2022-11-17T14:22:02.231Z,1.77
2022-11-17T14:24:28.474Z,1.71
2022-11-17T14:26:54.733Z,1.89
2022-11-17T14:29:21.000Z,1.76
2022-11-17T14:31:47.269Z,1.83
2022-11-17T14:34:13.779Z,1.88
2022-11-17T14:36:40.425Z,2.03
2022-11-17T14:39:06.691Z,1.90
2022-11-17T14:41:32.956Z,1.81
2022-11-17T14:43:59.219Z,1.63
2022-11-17T14:46:25.490Z,1.78
2022-11-17T14:48:51.735Z,1.73
2022-11-17T14:51:18.001Z,1.83
2022-11-17T14:53:44.351Z,1.96
2022-11-17T14:56:10.591Z,1.69
2022-11-17T14:58:36.848Z,1.62
2022-11-17T15:01:03.115Z,1.67
2022-11-17T15:03:29.401Z,1.73
2022-11-17T15:05:55.766Z,1.67
2022-11-17T15:08:22.007Z,1.92
2022-11-17T15:10:48.388Z,1.96
2022-11-17T15:13:14.637Z,1.78
2022-11-17T15:15:40.893Z,1.75
2022-11-17T15:18:07.164Z,1.88
2022-11-17T15:20:33.436Z,1.94
2022-11-17T15:23:03.353Z,1.96
2022-11-17T15:25:29.909Z,2.07
2022-11-17T15:27:56.169Z,2.11
2022-11-17T15:30:22.428Z,1.87
2022-11-17T15:32:48.684Z,1.84
2022-11-17T15:35:14.948Z,1.87
2022-11-17T15:37:41.214Z,1.82
2022-11-17T15:40:07.457Z,1.80
2022-11-17T15:42:33.748Z,2.03
2022-11-17T15:45:00.011Z,2.07
2022-11-17T15:47:26.288Z,2.08
2022-11-17T15:49:52.561Z,1.91
2022-11-17T15:52:30.156Z,1.64
2022-11-17T15:55:05.044Z,1.95
2022-11-17T15:57:31.285Z,1.87
2022-11-17T15:59:57.554Z,1.79
2022-11-17T16:02:23.808Z,1.96
2022-11-17T16:04:50.060Z,1.96
2022-11-17T16:07:16.347Z,2.04
2022-11-17T16:09:46.141Z,1.86
2022-11-17T16:12:15.414Z,1.99
2022-11-17T16:14:41.709Z,2.03
2022-11-17T16:17:07.984Z,2.10
2022-11-17T16:19:34.256Z,2.41
2022-11-17T16:22:00.529Z,1.78
2022-11-17T16:24:26.800Z,1.97
2022-11-17T16:26:53.063Z,2.08
2022-11-17T16:29:19.324Z,1.72
2022-11-17T16:31:45.591Z,1.89
2022-11-17T16:34:11.863Z,1.84
2022-11-17T16:36:38.102Z,2.16
2022-11-17T16:39:04.372Z,1.80
2022-11-17T16:41:30.630Z,1.90
2022-11-17T16:43:56.927Z,1.74
2022-11-17T16:46:23.231Z,1.83
2022-11-17T16:48:49.491Z,2.35
2022-11-17T16:51:15.755Z,1.97
2022-11-17T16:53:42.018Z,1.90
2022-11-17T16:56:08.288Z,1.93
2022-11-17T16:58:34.556Z,1.84
2022-11-17T17:01:00.828Z,1.87
2022-11-17T17:03:27.081Z,1.82
2022-11-17T17:05:53.363Z,1.91
2022-11-17T17:08:19.826Z,1.98
2022-11-17T17:10:46.093Z,1.93
2022-11-17T17:13:12.369Z,1.97
2022-11-17T17:15:38.656Z,1.79
2022-11-17T17:18:04.935Z,1.82
2022-11-17T17:20:31.199Z,2.04
2022-11-17T17:23:02.797Z,1.73
2022-11-17T17:25:29.400Z,1.96
2022-11-17T17:27:55.651Z,1.64
2022-11-17T17:30:21.900Z,1.82
2022-11-17T17:32:48.171Z,1.95
2022-11-17T17:35:14.447Z,1.98
2022-11-17T17:37:40.715Z,2.08
2022-11-17T17:40:06.978Z,1.97
2022-11-17T17:42:33.228Z,2.20
2022-11-17T17:44:59.495Z,1.97
2022-11-17T17:47:25.750Z,2.06
2022-11-17T17:49:51.996Z,2.09
2022-11-17T17:52:18.270Z,1.98
2022-11-17T17:54:44.547Z,2.00
2022-11-17T17:57:10.825Z,1.93
2022-11-17T17:59:37.084Z,1.90
2022-11-17T18:02:03.351Z,2.06
2022-11-17T18:04:29.619Z,1.89
2022-11-17T18:06:55.977Z,1.91
2022-11-17T18:09:22.305Z,1.83
2022-11-17T18:11:48.627Z,1.86
2022-11-17T18:14:14.881Z,2.14
2022-11-17T18:16:41.148Z,2.10
2022-11-17T18:19:07.426Z,2.11
2022-11-17T18:21:33.671Z,2.05
2022-11-17T18:23:59.945Z,2.03
2022-11-17T18:26:26.205Z,1.68
2022-11-17T18:28:52.466Z,1.96
2022-11-17T18:31:18.768Z,1.62
2022-11-17T18:33:45.039Z,1.80
2022-11-17T18:36:11.301Z,1.80
2022-11-17T18:38:37.548Z,1.75
2022-11-17T18:41:03.798Z,1.61
2022-11-17T18:43:30.068Z,1.72
2022-11-17T18:45:56.343Z,1.82
2022-11-17T18:48:22.588Z,1.93
2022-11-17T18:51:17.649Z,1.69
2022-11-17T18:53:35.098Z,1.61
2022-11-17T18:56:01.348Z,1.71
2022-11-17T18:58:27.612Z,1.71
2022-11-17T19:00:53.905Z,1.63
2022-11-17T19:03:20.173Z,1.53
2022-11-17T19:05:46.434Z,1.73
2022-11-17T19:08:12.695Z,1.69
2022-11-17T19:10:38.946Z,1.49
2022-11-17T19:13:05.212Z,1.67
2022-11-17T19:15:31.475Z,1.66
2022-11-17T19:17:57.748Z,1.56
2022-11-17T19:20:24.023Z,1.51
2022-11-17T19:22:50.286Z,1.58
2022-11-17T19:25:16.531Z,1.55
2022-11-17T19:27:42.808Z,1.73
2022-11-17T19:30:09.087Z,1.68
2022-11-17T19:32:35.347Z,1.68
2022-11-17T19:35:12.985Z,1.47
2022-11-17T19:37:41.030Z,1.16
2022-11-17T19:40:07.336Z,1.22
2022-11-17T19:42:33.574Z,1.34
2022-11-17T19:44:59.835Z,1.00
2022-11-17T19:47:26.080Z,1.20
2022-11-17T19:49:52.339Z,1.13
2022-11-17T19:52:18.608Z,1.22
2022-11-17T19:54:44.864Z,1.06
2022-11-17T19:57:11.126Z,0.85
2022-11-17T19:59:37.393Z,0.91
2022-11-17T20:02:03.657Z,0.72
2022-11-17T20:04:29.922Z,0.88
2022-11-17T20:06:56.194Z,0.93
2022-11-17T20:09:22.495Z,0.86
2022-11-17T20:11:48.763Z,0.89
2022-11-17T20:14:15.017Z,0.87
2022-11-17T20:16:41.295Z,0.86
2022-11-17T20:19:07.538Z,0.92
2022-11-17T20:21:33.798Z,0.86
2022-11-17T20:24:00.044Z,0.97
2022-11-17T20:26:26.290Z,1.19
2022-11-17T20:28:52.535Z,1.09
2022-11-17T20:31:18.793Z,1.09
2022-11-17T20:33:45.048Z,1.02
2022-11-17T20:36:11.304Z,0.90
2022-11-17T20:38:37.576Z,0.88
2022-11-17T20:41:03.826Z,0.93
2022-11-17T20:43:30.068Z,0.91
2022-11-17T20:45:56.331Z,0.80
2022-11-17T20:48:22.589Z,0.78
2022-11-17T20:50:48.846Z,0.90
2022-11-17T20:53:15.089Z,0.94
2022-11-17T20:55:41.360Z,0.86
2022-11-17T20:58:07.604Z,0.90
2022-11-17T21:00:33.844Z,0.82
2022-11-17T21:03:00.096Z,0.87
2022-11-17T21:05:26.337Z,0.86
2022-11-17T21:07:52.573Z,0.95
2022-11-17T21:10:18.815Z,0.82
2022-11-17T21:12:45.072Z,0.93
2022-11-17T21:15:11.334Z,0.91
2022-11-17T21:17:37.629Z,0.92
2022-11-17T21:20:03.915Z,1.00
2022-11-17T21:22:30.203Z,0.91
2022-11-17T21:24:56.471Z,1.00
2022-11-17T21:27:22.742Z,0.96
2022-11-17T21:29:49.023Z,1.06
2022-11-17T21:32:15.285Z,0.94
2022-11-17T21:34:45.675Z,0.84
2022-11-17T21:37:14.873Z,0.91
2022-11-17T21:39:41.121Z,0.96
2022-11-17T21:42:07.363Z,0.81
2022-11-17T21:44:33.608Z,0.77
2022-11-17T21:46:59.863Z,0.82
2022-11-17T21:49:26.099Z,0.64
2022-11-17T21:51:52.340Z,0.88
2022-11-17T21:54:18.600Z,0.75
2022-11-17T21:56:44.843Z,0.80
2022-11-17T21:59:11.078Z,0.79
2022-11-17T22:01:37.422Z,0.75
2022-11-17T22:04:03.709Z,0.61
2022-11-17T22:06:29.965Z,0.80
2022-11-17T22:08:56.215Z,0.93
2022-11-17T22:11:22.483Z,1.01
2022-11-17T22:13:48.752Z,1.32
2022-11-17T22:16:14.997Z,1.34
2022-11-17T22:18:41.272Z,1.54
2022-11-17T22:21:07.535Z,1.61
2022-11-17T22:23:33.836Z,1.79
2022-11-17T22:26:00.097Z,1.87
2022-11-17T22:28:26.363Z,1.88
2022-11-17T22:30:52.617Z,1.79
2022-11-17T22:33:19.053Z,1.52
2022-11-17T22:35:45.352Z,1.63
2022-11-17T22:38:11.632Z,1.76
2022-11-17T22:40:37.898Z,1.77
2022-11-17T22:43:04.746Z,1.75
2022-11-17T22:45:31.492Z,1.76
2022-11-17T22:47:57.733Z,1.78
2022-11-17T22:50:23.978Z,1.85
2022-11-17T22:52:50.246Z,1.84
2022-11-17T22:55:16.505Z,1.74
2022-11-17T22:57:42.801Z,1.66
2022-11-17T23:00:09.046Z,1.48
2022-11-17T23:02:35.376Z,1.50
2022-11-17T23:05:01.670Z,1.30
2022-11-17T23:07:27.982Z,1.46
2022-11-17T23:09:54.345Z,0.71
2022-11-17T23:12:20.712Z,0.42
2022-11-17T23:14:47.009Z,0.43
2022-11-17T23:17:13.287Z,0.21
2022-11-17T23:19:39.531Z,0.22
2022-11-17T23:22:05.800Z,0.20
2022-11-17T23:24:32.076Z,0.19
2022-11-17T23:26:58.330Z,0.20
2022-11-17T23:29:24.593Z,0.19
2022-11-17T23:31:50.854Z,0.14
2022-11-17T23:34:17.124Z,0.14
2022-11-17T23:36:43.388Z,0.15
2022-11-17T23:39:09.646Z,0.14
2022-11-17T23:41:35.968Z,0.21
2022-11-17T23:44:02.221Z,0.16
2022-11-17T23:46:28.511Z,0.17
2022-11-17T23:48:54.793Z,0.22
2022-11-17T23:51:21.029Z,0.20
2022-11-17T23:53:47.352Z,0.25
2022-11-17T23:56:13.600Z,0.35
2022-11-17T23:58:39.834Z,0.22
